sensor_id;sensor_type;location;lat;lon;timestamp;P1;durP1;ratioP1;P2;durP2;ratioP2
10096;SDS011;5087;42.662;23.466;2023-02-15T14:12:49;3.60;;;3.60;;
10096;SDS011;5087;42.662;23.466;2023-02-15T14:15:32;3.70;;;3.70;;
10096;SDS011;5087;42.662;23.466;2023-02-15T14:18:18;3.70;;;3.70;;
10096;SDS011;5087;42.662;23.466;2023-02-15T14:20:56;3.50;;;3.50;;
10096;SDS011;5087;42.662;23.466;2023-02-15T14:23:35;3.60;;;3.60;;
10096;SDS011;5087;42.662;23.466;2023-02-15T14:26:17;3.80;;;3.80;;
10096;SDS011;5087;42.662;23.466;2023-02-15T14:29:03;3.60;;;3.60;;
10096;SDS011;5087;42.662;23.466;2023-02-15T14:31:40;4.23;;;4.13;;
10096;SDS011;5087;42.662;23.466;2023-02-15T14:34:15;4.73;;;4.63;;
10096;SDS011;5087;42.662;23.466;2023-02-15T14:36:48;4.30;;;4.20;;
10096;SDS011;5087;42.662;23.466;2023-02-15T14:39:21;4.00;;;3.90;;
10096;SDS011;5087;42.662;23.466;2023-02-15T14:42:14;4.60;;;4.50;;
10096;SDS011;5087;42.662;23.466;2023-02-15T14:44:47;4.40;;;4.30;;
10096;SDS011;5087;42.662;23.466;2023-02-15T14:47:21;4.20;;;4.10;;
10096;SDS011;5087;42.662;23.466;2023-02-15T14:49:54;4.50;;;4.40;;
10096;SDS011;5087;42.662;23.466;2023-02-15T14:52:22;4.80;;;4.70;;
10096;SDS011;5087;42.662;23.466;2023-02-15T14:54:53;4.57;;;4.47;;
10096;SDS011;5087;42.662;23.466;2023-02-15T14:57:25;4.53;;;4.43;;
10096;SDS011;5087;42.662;23.466;2023-02-15T14:59:55;4.50;;;4.40;;
10096;SDS011;5087;42.662;23.466;2023-02-15T15:02:26;4.50;;;4.40;;
10096;SDS011;5087;42.662;23.466;2023-02-15T15:04:59;4.50;;;4.40;;
10096;SDS011;5087;42.662;23.466;2023-02-15T15:07:37;4.90;;;4.80;;
10096;SDS011;5087;42.662;23.466;2023-02-15T15:22:32;6.23;;;5.70;;
10096;SDS011;5087;42.662;23.466;2023-02-15T15:25:02;4.50;;;4.40;;
10096;SDS011;5087;42.662;23.466;2023-02-15T15:27:43;4.90;;;4.80;;
10096;SDS011;5087;42.662;23.466;2023-02-15T15:33:44;4.70;;;4.60;;
10096;SDS011;5087;42.662;23.466;2023-02-15T15:37:00;4.80;;;4.70;;
10096;SDS011;5087;42.662;23.466;2023-02-15T15:42:50;5.43;;;5.33;;
10096;SDS011;5087;42.662;23.466;2023-02-15T15:45:35;5.00;;;4.90;;
10096;SDS011;5087;42.662;23.466;2023-02-15T15:48:26;5.10;;;5.00;;
10096;SDS011;5087;42.662;23.466;2023-02-15T15:51:02;5.10;;;5.00;;
10096;SDS011;5087;42.662;23.466;2023-02-15T15:53:38;4.80;;;4.70;;
10096;SDS011;5087;42.662;23.466;2023-02-15T15:56:12;4.93;;;4.83;;
10096;SDS011;5087;42.662;23.466;2023-02-15T15:58:44;4.80;;;4.70;;
10096;SDS011;5087;42.662;23.466;2023-02-15T16:01:15;4.80;;;4.70;;
10096;SDS011;5087;42.662;23.466;2023-02-15T16:03:49;5.20;;;5.10;;
10096;SDS011;5087;42.662;23.466;2023-02-15T16:06:29;4.97;;;4.87;;
10096;SDS011;5087;42.662;23.466;2023-02-15T16:09:10;4.97;;;4.87;;
10096;SDS011;5087;42.662;23.466;2023-02-15T16:11:39;4.87;;;4.77;;
10096;SDS011;5087;42.662;23.466;2023-02-15T16:14:11;5.53;;;5.43;;
10096;SDS011;5087;42.662;23.466;2023-02-15T16:16:41;5.00;;;4.90;;
10096;SDS011;5087;42.662;23.466;2023-02-15T16:19:20;5.67;;;5.57;;
10096;SDS011;5087;42.662;23.466;2023-02-15T16:21:57;4.57;;;4.47;;
10096;SDS011;5087;42.662;23.466;2023-02-15T16:27:24;4.60;;;4.50;;
10096;SDS011;5087;42.662;23.466;2023-02-15T16:30:13;4.40;;;4.30;;
10096;SDS011;5087;42.662;23.466;2023-02-15T16:32:44;5.40;;;5.20;;
10096;SDS011;5087;42.662;23.466;2023-02-15T16:35:13;4.50;;;4.40;;
10096;SDS011;5087;42.662;23.466;2023-02-15T16:37:43;4.47;;;4.37;;
10096;SDS011;5087;42.662;23.466;2023-02-15T16:40:24;4.63;;;4.53;;
10096;SDS011;5087;42.662;23.466;2023-02-15T16:42:55;4.80;;;4.70;;
10096;SDS011;5087;42.662;23.466;2023-02-15T16:45:28;4.40;;;4.30;;
10096;SDS011;5087;42.662;23.466;2023-02-15T16:47:58;4.77;;;4.67;;
10096;SDS011;5087;42.662;23.466;2023-02-15T16:50:32;4.70;;;4.60;;
10096;SDS011;5087;42.662;23.466;2023-02-15T16:53:04;4.60;;;4.50;;
10096;SDS011;5087;42.662;23.466;2023-02-15T16:55:35;3.70;;;3.70;;
10096;SDS011;5087;42.662;23.466;2023-02-15T16:58:06;3.90;;;3.80;;
10096;SDS011;5087;42.662;23.466;2023-02-15T17:00:40;4.47;;;4.37;;
10096;SDS011;5087;42.662;23.466;2023-02-15T17:03:19;5.97;;;5.77;;
10096;SDS011;5087;42.662;23.466;2023-02-15T17:05:52;4.07;;;3.97;;
10096;SDS011;5087;42.662;23.466;2023-02-15T17:08:26;4.03;;;3.93;;
10096;SDS011;5087;42.662;23.466;2023-02-15T17:11:08;3.50;;;3.50;;
10096;SDS011;5087;42.662;23.466;2023-02-15T17:13:38;4.90;;;4.70;;
10096;SDS011;5087;42.662;23.466;2023-02-15T17:16:21;3.40;;;3.40;;
10096;SDS011;5087;42.662;23.466;2023-02-15T17:18:53;3.40;;;3.40;;
10096;SDS011;5087;42.662;23.466;2023-02-15T17:21:24;6.47;;;6.27;;
10096;SDS011;5087;42.662;23.466;2023-02-15T17:23:58;3.20;;;3.20;;
10096;SDS011;5087;42.662;23.466;2023-02-15T17:26:30;3.30;;;3.30;;
10096;SDS011;5087;42.662;23.466;2023-02-15T17:28:59;9.93;;;4.20;;
10096;SDS011;5087;42.662;23.466;2023-02-15T17:31:30;3.20;;;3.20;;
10096;SDS011;5087;42.662;23.466;2023-02-15T17:33:59;3.93;;;3.83;;
10096;SDS011;5087;42.662;23.466;2023-02-15T17:36:30;3.00;;;3.00;;
10096;SDS011;5087;42.662;23.466;2023-02-15T17:39:17;3.60;;;3.50;;
10096;SDS011;5087;42.662;23.466;2023-02-15T17:41:47;2.93;;;2.93;;
10096;SDS011;5087;42.662;23.466;2023-02-15T17:44:18;3.20;;;3.20;;
10096;SDS011;5087;42.662;23.466;2023-02-15T17:46:45;2.80;;;2.80;;
10096;SDS011;5087;42.662;23.466;2023-02-15T17:49:13;3.17;;;3.17;;
10096;SDS011;5087;42.662;23.466;2023-02-15T17:51:50;3.17;;;3.17;;
10096;SDS011;5087;42.662;23.466;2023-02-15T17:54:18;3.00;;;3.00;;
10096;SDS011;5087;42.662;23.466;2023-02-15T17:57:04;2.80;;;2.80;;
10096;SDS011;5087;42.662;23.466;2023-02-15T17:59:37;2.50;;;2.50;;
10096;SDS011;5087;42.662;23.466;2023-02-15T18:02:22;3.00;;;3.00;;
10096;SDS011;5087;42.662;23.466;2023-02-15T18:05:07;2.60;;;2.60;;
10096;SDS011;5087;42.662;23.466;2023-02-15T18:07:56;3.23;;;3.13;;
10096;SDS011;5087;42.662;23.466;2023-02-15T18:10:42;2.77;;;2.77;;
10096;SDS011;5087;42.662;23.466;2023-02-15T18:13:27;3.07;;;3.07;;
10096;SDS011;5087;42.662;23.466;2023-02-15T18:15:56;2.50;;;2.50;;
10096;SDS011;5087;42.662;23.466;2023-02-15T18:18:24;2.73;;;2.73;;
10096;SDS011;5087;42.662;23.466;2023-02-15T18:20:52;2.30;;;2.30;;
10096;SDS011;5087;42.662;23.466;2023-02-15T18:23:19;2.30;;;2.30;;
10096;SDS011;5087;42.662;23.466;2023-02-15T18:25:51;2.10;;;2.10;;
10096;SDS011;5087;42.662;23.466;2023-02-15T18:28:18;2.40;;;2.40;;
10096;SDS011;5087;42.662;23.466;2023-02-15T18:30:45;2.20;;;2.20;;
10096;SDS011;5087;42.662;23.466;2023-02-15T18:33:16;2.70;;;2.70;;
10096;SDS011;5087;42.662;23.466;2023-02-15T18:35:54;2.57;;;2.57;;
10096;SDS011;5087;42.662;23.466;2023-02-15T18:38:25;2.10;;;2.10;;
10096;SDS011;5087;42.662;23.466;2023-02-15T18:40:57;2.20;;;2.20;;
10096;SDS011;5087;42.662;23.466;2023-02-15T18:43:24;3.60;;;3.40;;
10096;SDS011;5087;42.662;23.466;2023-02-15T18:45:51;2.10;;;2.10;;
10096;SDS011;5087;42.662;23.466;2023-02-15T18:48:18;2.30;;;2.30;;
10096;SDS011;5087;42.662;23.466;2023-02-15T18:50:45;2.63;;;2.63;;
10096;SDS011;5087;42.662;23.466;2023-02-15T18:53:14;2.57;;;2.57;;
10096;SDS011;5087;42.662;23.466;2023-02-15T18:55:44;2.10;;;2.10;;
10096;SDS011;5087;42.662;23.466;2023-02-15T18:58:17;2.30;;;2.30;;
10096;SDS011;5087;42.662;23.466;2023-02-15T19:00:49;2.23;;;2.23;;
10096;SDS011;5087;42.662;23.466;2023-02-15T19:03:17;2.00;;;2.00;;
10096;SDS011;5087;42.662;23.466;2023-02-15T19:05:45;2.20;;;2.20;;
10096;SDS011;5087;42.662;23.466;2023-02-15T19:08:16;2.40;;;2.40;;
10096;SDS011;5087;42.662;23.466;2023-02-15T19:10:46;2.10;;;2.10;;
10096;SDS011;5087;42.662;23.466;2023-02-15T19:13:18;2.87;;;2.87;;
10096;SDS011;5087;42.662;23.466;2023-02-15T19:15:48;1.90;;;1.90;;
10096;SDS011;5087;42.662;23.466;2023-02-15T19:18:15;2.43;;;2.43;;
10096;SDS011;5087;42.662;23.466;2023-02-15T19:20:44;4.23;;;4.03;;
10096;SDS011;5087;42.662;23.466;2023-02-15T19:23:14;2.80;;;2.80;;
10096;SDS011;5087;42.662;23.466;2023-02-15T19:25:45;2.07;;;2.07;;
10096;SDS011;5087;42.662;23.466;2023-02-15T19:28:14;1.70;;;1.70;;
10096;SDS011;5087;42.662;23.466;2023-02-15T19:30:46;1.80;;;1.80;;
10096;SDS011;5087;42.662;23.466;2023-02-15T19:33:15;1.50;;;1.50;;
10096;SDS011;5087;42.662;23.466;2023-02-15T19:35:44;1.10;;;1.10;;
10096;SDS011;5087;42.662;23.466;2023-02-15T19:38:17;1.07;;;1.07;;
10096;SDS011;5087;42.662;23.466;2023-02-15T19:40:49;0.80;;;0.80;;
10096;SDS011;5087;42.662;23.466;2023-02-15T19:43:17;0.87;;;0.87;;
10096;SDS011;5087;42.662;23.466;2023-02-15T19:45:50;0.40;;;0.40;;
10096;SDS011;5087;42.662;23.466;2023-02-15T19:48:18;0.40;;;0.40;;
10096;SDS011;5087;42.662;23.466;2023-02-15T19:50:46;0.30;;;0.30;;
10096;SDS011;5087;42.662;23.466;2023-02-15T19:53:17;0.30;;;0.30;;
10096;SDS011;5087;42.662;23.466;2023-02-15T19:55:50;0.30;;;0.30;;
10096;SDS011;5087;42.662;23.466;2023-02-15T19:58:19;0.30;;;0.30;;
10096;SDS011;5087;42.662;23.466;2023-02-15T20:00:47;0.30;;;0.30;;
10096;SDS011;5087;42.662;23.466;2023-02-15T20:03:17;0.77;;;0.77;;
10096;SDS011;5087;42.662;23.466;2023-02-15T20:05:48;2.37;;;1.27;;
10096;SDS011;5087;42.662;23.466;2023-02-15T20:08:16;0.13;;;0.13;;
10096;SDS011;5087;42.662;23.466;2023-02-15T20:10:48;0.20;;;0.20;;
10096;SDS011;5087;42.662;23.466;2023-02-15T20:13:17;2.20;;;2.10;;
10096;SDS011;5087;42.662;23.466;2023-02-15T20:15:48;0.20;;;0.20;;
10096;SDS011;5087;42.662;23.466;2023-02-15T20:18:18;0.20;;;0.20;;
10096;SDS011;5087;42.662;23.466;2023-02-15T20:20:45;0.30;;;0.30;;
10096;SDS011;5087;42.662;23.466;2023-02-15T20:23:22;0.20;;;0.20;;
10096;SDS011;5087;42.662;23.466;2023-02-15T20:25:52;0.20;;;0.20;;
10096;SDS011;5087;42.662;23.466;2023-02-15T20:28:24;0.20;;;0.20;;
10096;SDS011;5087;42.662;23.466;2023-02-15T20:30:53;0.70;;;0.70;;
10096;SDS011;5087;42.662;23.466;2023-02-15T20:33:25;0.20;;;0.20;;
10096;SDS011;5087;42.662;23.466;2023-02-15T20:35:55;0.10;;;0.10;;
10096;SDS011;5087;42.662;23.466;2023-02-15T20:38:26;0.73;;;0.73;;
10096;SDS011;5087;42.662;23.466;2023-02-15T20:40:59;2.87;;;1.90;;
10096;SDS011;5087;42.662;23.466;2023-02-15T20:43:48;8.90;;;8.03;;
10096;SDS011;5087;42.662;23.466;2023-02-15T20:54:37;0.20;;;0.20;;
10096;SDS011;5087;42.662;23.466;2023-02-15T20:57:04;5.03;;;4.70;;
10096;SDS011;5087;42.662;23.466;2023-02-15T20:59:34;0.10;;;0.10;;
10096;SDS011;5087;42.662;23.466;2023-02-15T21:02:03;0.10;;;0.10;;
10096;SDS011;5087;42.662;23.466;2023-02-15T21:04:41;0.20;;;0.20;;
10096;SDS011;5087;42.662;23.466;2023-02-15T21:07:12;0.20;;;0.20;;
10096;SDS011;5087;42.662;23.466;2023-02-15T21:09:42;4.07;;;2.60;;
10096;SDS011;5087;42.662;23.466;2023-02-15T21:12:13;0.10;;;0.10;;
10096;SDS011;5087;42.662;23.466;2023-02-15T21:14:41;8.90;;;3.50;;
10096;SDS011;5087;42.662;23.466;2023-02-15T21:17:13;0.10;;;0.10;;
10096;SDS011;5087;42.662;23.466;2023-02-15T21:19:42;0.10;;;0.10;;
10096;SDS011;5087;42.662;23.466;2023-02-15T21:22:10;1.07;;;1.07;;
10096;SDS011;5087;42.662;23.466;2023-02-15T21:24:44;0.30;;;0.30;;
10096;SDS011;5087;42.662;23.466;2023-02-15T21:27:16;0.10;;;0.10;;
10096;SDS011;5087;42.662;23.466;2023-02-15T21:29:44;1.10;;;1.00;;
10096;SDS011;5087;42.662;23.466;2023-02-15T21:32:20;0.40;;;0.40;;
10096;SDS011;5087;42.662;23.466;2023-02-15T21:34:48;0.50;;;0.50;;
10096;SDS011;5087;42.662;23.466;2023-02-15T21:37:24;0.10;;;0.10;;
10096;SDS011;5087;42.662;23.466;2023-02-15T21:39:56;0.10;;;0.10;;
10096;SDS011;5087;42.662;23.466;2023-02-15T21:42:24;0.10;;;0.10;;
10096;SDS011;5087;42.662;23.466;2023-02-15T21:45:12;0.73;;;0.73;;
10096;SDS011;5087;42.662;23.466;2023-02-15T21:47:58;0.77;;;0.60;;
10096;SDS011;5087;42.662;23.466;2023-02-15T21:50:26;0.20;;;0.20;;
10096;SDS011;5087;42.662;23.466;2023-02-15T21:53:26;0.10;;;0.10;;
10096;SDS011;5087;42.662;23.466;2023-02-15T21:55:58;0.10;;;0.10;;
10096;SDS011;5087;42.662;23.466;2023-02-15T21:58:30;0.10;;;0.10;;
10096;SDS011;5087;42.662;23.466;2023-02-15T22:00:59;0.20;;;0.20;;
10096;SDS011;5087;42.662;23.466;2023-02-15T22:03:30;1.40;;;1.40;;
10096;SDS011;5087;42.662;23.466;2023-02-15T22:06:01;0.20;;;0.20;;
10096;SDS011;5087;42.662;23.466;2023-02-15T22:08:32;0.20;;;0.20;;
10096;SDS011;5087;42.662;23.466;2023-02-15T22:11:01;2.40;;;2.30;;
10096;SDS011;5087;42.662;23.466;2023-02-15T22:13:32;0.40;;;0.40;;
10096;SDS011;5087;42.662;23.466;2023-02-15T22:15:59;1.17;;;1.07;;
10096;SDS011;5087;42.662;23.466;2023-02-15T22:18:29;0.13;;;0.13;;
10096;SDS011;5087;42.662;23.466;2023-02-15T22:21:00;0.47;;;0.47;;
10096;SDS011;5087;42.662;23.466;2023-02-15T22:23:27;0.20;;;0.20;;
10096;SDS011;5087;42.662;23.466;2023-02-15T22:25:55;0.10;;;0.10;;
10096;SDS011;5087;42.662;23.466;2023-02-15T22:28:26;0.83;;;0.83;;
10096;SDS011;5087;42.662;23.466;2023-02-15T22:31:01;0.10;;;0.10;;
10096;SDS011;5087;42.662;23.466;2023-02-15T22:33:30;0.10;;;0.10;;
10096;SDS011;5087;42.662;23.466;2023-02-15T22:35:59;0.20;;;0.20;;
10096;SDS011;5087;42.662;23.466;2023-02-15T22:38:26;0.40;;;0.40;;
10096;SDS011;5087;42.662;23.466;2023-02-15T22:40:54;0.10;;;0.10;;
10096;SDS011;5087;42.662;23.466;2023-02-15T22:43:32;0.03;;;0.03;;
10096;SDS011;5087;42.662;23.466;2023-02-15T22:46:03;0.27;;;0.27;;
10096;SDS011;5087;42.662;23.466;2023-02-15T22:48:31;0.10;;;0.10;;
10096;SDS011;5087;42.662;23.466;2023-02-15T22:50:59;0.10;;;0.10;;
10096;SDS011;5087;42.662;23.466;2023-02-15T22:53:26;0.10;;;0.10;;
10096;SDS011;5087;42.662;23.466;2023-02-15T22:55:54;0.10;;;0.10;;
10096;SDS011;5087;42.662;23.466;2023-02-15T22:58:25;0.10;;;0.10;;
10096;SDS011;5087;42.662;23.466;2023-02-15T23:00:55;0.30;;;0.30;;
10096;SDS011;5087;42.662;23.466;2023-02-15T23:03:24;0.10;;;0.10;;
10096;SDS011;5087;42.662;23.466;2023-02-15T23:05:57;4.40;;;4.00;;
10096;SDS011;5087;42.662;23.466;2023-02-15T23:08:24;3.70;;;3.50;;
10096;SDS011;5087;42.662;23.466;2023-02-15T23:10:52;0.47;;;0.47;;
10096;SDS011;5087;42.662;23.466;2023-02-15T23:13:22;0.40;;;0.40;;
10096;SDS011;5087;42.662;23.466;2023-02-15T23:15:53;0.73;;;0.73;;
10096;SDS011;5087;42.662;23.466;2023-02-15T23:18:29;2.43;;;0.50;;
10096;SDS011;5087;42.662;23.466;2023-02-15T23:20:58;0.33;;;0.33;;
10096;SDS011;5087;42.662;23.466;2023-02-15T23:23:29;0.30;;;0.30;;
10096;SDS011;5087;42.662;23.466;2023-02-15T23:26:02;0.20;;;0.20;;
10096;SDS011;5087;42.662;23.466;2023-02-15T23:28:31;2.50;;;2.30;;
10096;SDS011;5087;42.662;23.466;2023-02-15T23:31:00;0.00;;;0.00;;
10096;SDS011;5087;42.662;23.466;2023-02-15T23:33:30;1.90;;;1.80;;
10096;SDS011;5087;42.662;23.466;2023-02-15T23:35:59;0.10;;;0.10;;
10096;SDS011;5087;42.662;23.466;2023-02-15T23:38:27;0.10;;;0.10;;
10096;SDS011;5087;42.662;23.466;2023-02-15T23:40:56;0.13;;;0.13;;
10096;SDS011;5087;42.662;23.466;2023-02-15T23:43:42;0.10;;;0.10;;
10096;SDS011;5087;42.662;23.466;2023-02-15T23:46:25;0.10;;;0.10;;
10096;SDS011;5087;42.662;23.466;2023-02-15T23:49:00;0.10;;;0.10;;
10096;SDS011;5087;42.662;23.466;2023-02-15T23:51:39;0.10;;;0.10;;
10096;SDS011;5087;42.662;23.466;2023-02-15T23:54:07;0.00;;;0.00;;
10096;SDS011;5087;42.662;23.466;2023-02-15T23:56:34;0.47;;;0.47;;
10096;SDS011;5087;42.662;23.466;2023-02-15T23:59:03;0.20;;;0.20;;
